createdAt,value
2022-10-09T00:01:08.056Z,101568.16
2022-10-09T00:03:35.987Z,101581.81
2022-10-09T00:06:03.953Z,101574.25
2022-10-09T00:08:30.585Z,101603.16
2022-10-09T00:10:57.528Z,101615.44
2022-10-09T00:13:24.201Z,101587.19
2022-10-09T00:15:50.913Z,101615.47
2022-10-09T00:18:18.811Z,101519.22
2022-10-09T00:20:46.817Z,101522.59
2022-10-09T00:23:16.588Z,101616.13
2022-10-09T00:25:57.003Z,101555.41
2022-10-09T00:28:26.648Z,101619.34
2022-10-09T00:30:54.002Z,101620.16
2022-10-09T00:33:20.949Z,101587.72
2022-10-09T00:35:47.830Z,101607.72
2022-10-09T00:38:14.885Z,101596.97
2022-10-09T00:40:41.806Z,101573.41
2022-10-09T00:43:37.601Z,101625.53
2022-10-09T00:46:04.408Z,101557.09
2022-10-09T00:48:31.699Z,101611.28
2022-10-09T00:51:01.034Z,101602.16
2022-10-09T00:53:30.230Z,101602.69
2022-10-09T00:55:58.129Z,101600.47
2022-10-09T00:58:25.276Z,101595.78
2022-10-09T01:00:52.467Z,101595.94
2022-10-09T01:03:19.156Z,101605.69
2022-10-09T01:05:58.021Z,101600.13
2022-10-09T01:08:31.072Z,101500.00
2022-10-09T01:11:26.671Z,101564.59
2022-10-09T01:14:01.336Z,101580.59
2022-10-09T01:16:44.834Z,101558.72
2022-10-09T01:19:27.658Z,101591.91
2022-10-09T01:22:23.420Z,101549.66
2022-10-09T01:25:06.292Z,101588.66
2022-10-09T01:27:34.558Z,101449.59
2022-10-09T01:30:07.669Z,101541.41
2022-10-09T01:32:38.149Z,101598.59
2022-10-09T01:35:06.540Z,101575.03
2022-10-09T01:37:35.484Z,101600.13
2022-10-09T01:40:05.012Z,101581.72
2022-10-09T01:42:32.381Z,101611.00
2022-10-09T01:44:59.021Z,101569.25
2022-10-09T01:47:26.204Z,101573.06
2022-10-09T01:49:55.795Z,101400.75
2022-10-09T01:52:33.588Z,101601.50
2022-10-09T01:55:13.326Z,101561.41
2022-10-09T01:57:50.643Z,101537.97
2022-10-09T02:00:18.809Z,101612.41
2022-10-09T02:02:47.224Z,101613.84
2022-10-09T02:05:20.435Z,101585.91
2022-10-09T02:07:47.380Z,101586.72
2022-10-09T02:10:16.478Z,101578.31
2022-10-09T02:12:49.891Z,101589.09
2022-10-09T02:15:16.759Z,101610.66
2022-10-09T02:17:47.677Z,101604.38
2022-10-09T02:20:22.632Z,101597.97
2022-10-09T02:22:49.585Z,101537.22
2022-10-09T02:25:18.428Z,101596.66
2022-10-09T02:27:46.206Z,101610.81
2022-10-09T02:30:15.246Z,101611.84
2022-10-09T02:32:41.926Z,101568.66
2022-10-09T02:35:08.918Z,101588.41
2022-10-09T02:37:35.400Z,101606.59
2022-10-09T02:40:03.233Z,101602.03
2022-10-09T02:42:31.476Z,101579.38
2022-10-09T02:44:58.115Z,101599.13
2022-10-09T02:47:24.630Z,101606.69
2022-10-09T02:49:51.183Z,101593.06
2022-10-09T02:52:17.718Z,101598.28
2022-10-09T02:54:44.207Z,101559.03
2022-10-09T02:57:14.250Z,101606.09
2022-10-09T02:59:40.816Z,101605.78
2022-10-09T03:02:07.428Z,101616.84
2022-10-09T03:04:34.093Z,101624.84
2022-10-09T03:07:00.595Z,101571.09
2022-10-09T03:09:31.403Z,101630.22
2022-10-09T03:12:00.012Z,101618.00
2022-10-09T03:14:27.195Z,101626.44
2022-10-09T03:16:53.679Z,101624.22
2022-10-09T03:19:20.242Z,101634.28
2022-10-09T03:21:46.773Z,101636.53
2022-10-09T03:24:13.390Z,101625.91
2022-10-09T03:26:39.996Z,101586.94
2022-10-09T03:29:06.593Z,101541.28
2022-10-09T03:31:51.380Z,101613.09
2022-10-09T03:34:19.321Z,101478.84
2022-10-09T03:36:46.090Z,101571.84
2022-10-09T03:39:12.673Z,101642.91
2022-10-09T03:41:39.259Z,101638.91
2022-10-09T03:44:05.917Z,101594.66
2022-10-09T03:46:32.567Z,101608.44
2022-10-09T03:48:59.129Z,101628.31
2022-10-09T03:51:26.946Z,101630.66
2022-10-09T03:53:53.441Z,101636.72
2022-10-09T03:56:19.996Z,101648.84
2022-10-09T03:58:46.561Z,101652.41
2022-10-09T04:01:13.091Z,101637.25
2022-10-09T04:03:39.659Z,101621.56
2022-10-09T04:06:06.518Z,101642.59
2022-10-09T04:08:33.062Z,101624.84
2022-10-09T04:11:01.339Z,101648.75
2022-10-09T04:13:27.940Z,101630.56
2022-10-09T04:15:55.605Z,101616.41
2022-10-09T04:18:22.874Z,101567.72
2022-10-09T04:20:51.249Z,101633.31
2022-10-09T04:23:22.822Z,101607.72
2022-10-09T04:25:53.932Z,101650.66
2022-10-09T04:28:20.775Z,101635.66
2022-10-09T04:30:47.274Z,101636.34
2022-10-09T04:33:13.812Z,101627.94
2022-10-09T04:35:50.897Z,101635.81
2022-10-09T04:38:18.178Z,101624.84
2022-10-09T04:40:44.736Z,101646.44
2022-10-09T04:43:11.340Z,101642.75
2022-10-09T04:45:41.593Z,101644.44
2022-10-09T04:48:08.128Z,101633.00
2022-10-09T04:50:34.632Z,101651.63
2022-10-09T04:53:01.367Z,101652.78
2022-10-09T04:55:27.894Z,101653.97
2022-10-09T04:57:54.413Z,101659.00
2022-10-09T05:00:21.021Z,101623.34
2022-10-09T05:02:47.809Z,101542.81
2022-10-09T05:05:14.765Z,101661.22
2022-10-09T05:07:41.297Z,101656.19
2022-10-09T05:10:08.486Z,101660.38
2022-10-09T05:12:35.053Z,101642.19
2022-10-09T05:15:02.141Z,101626.50
2022-10-09T05:17:28.780Z,101652.28
2022-10-09T05:19:55.405Z,101660.53
2022-10-09T05:22:22.171Z,101665.75
2022-10-09T05:24:48.721Z,101663.09
2022-10-09T05:27:15.215Z,101646.59
2022-10-09T05:29:41.892Z,101636.13
2022-10-09T05:32:08.512Z,101634.63
2022-10-09T05:34:35.667Z,101638.81
2022-10-09T05:37:02.259Z,101613.78
2022-10-09T05:39:28.785Z,101655.69
2022-10-09T05:41:55.303Z,101664.13
2022-10-09T05:44:22.007Z,101668.84
2022-10-09T05:46:48.538Z,101657.38
2022-10-09T05:49:15.206Z,101639.91
2022-10-09T05:51:42.972Z,101652.03
2022-10-09T05:54:16.552Z,101639.41
2022-10-09T05:56:44.485Z,101656.72
2022-10-09T05:59:19.502Z,101692.78
2022-10-09T06:01:49.834Z,101608.88
2022-10-09T06:04:20.051Z,101696.97
2022-10-09T06:06:48.632Z,101690.09
2022-10-09T06:09:23.085Z,101683.13
2022-10-09T06:11:50.977Z,101703.53
2022-10-09T06:14:18.246Z,101687.34
2022-10-09T06:16:45.890Z,101668.47
2022-10-09T06:19:15.210Z,101712.63
2022-10-09T06:21:43.245Z,101701.19
2022-10-09T06:24:23.263Z,101713.13
2022-10-09T06:26:53.730Z,101684.66
2022-10-09T06:29:20.349Z,101722.41
2022-10-09T06:31:46.888Z,101711.78
2022-10-09T06:34:13.483Z,101728.81
2022-10-09T06:36:40.070Z,101699.13
2022-10-09T06:39:08.193Z,101738.22
2022-10-09T06:41:35.315Z,101727.09
2022-10-09T06:44:07.801Z,101739.59
2022-10-09T06:46:37.421Z,101727.25
2022-10-09T06:49:05.455Z,101735.53
2022-10-09T06:51:32.873Z,101757.59
2022-10-09T06:54:02.139Z,101757.41
2022-10-09T06:56:32.146Z,101744.47
2022-10-09T06:59:03.806Z,101756.41
2022-10-09T07:01:32.246Z,101758.28
2022-10-09T07:04:04.454Z,101759.13
2022-10-09T07:06:32.595Z,101672.53
2022-10-09T07:09:01.524Z,101754.75
2022-10-09T07:11:34.233Z,101712.97
2022-10-09T07:14:03.346Z,101768.91
2022-10-09T07:16:38.381Z,101770.56
2022-10-09T07:19:11.106Z,101756.78
2022-10-09T07:21:41.417Z,101780.69
2022-10-09T07:24:08.696Z,101714.00
2022-10-09T07:26:38.461Z,101750.69
2022-10-09T07:29:07.938Z,101783.69
2022-10-09T07:31:34.543Z,101776.97
2022-10-09T07:34:01.361Z,101742.97
2022-10-09T07:36:28.103Z,101746.78
2022-10-09T07:38:57.085Z,101767.88
2022-10-09T07:41:25.665Z,101769.25
2022-10-09T07:43:52.545Z,101782.38
2022-10-09T07:46:20.891Z,101771.28
2022-10-09T07:48:50.497Z,101759.31
2022-10-09T07:51:27.712Z,101741.97
2022-10-09T07:53:54.961Z,101783.25
2022-10-09T07:56:29.281Z,101697.38
2022-10-09T07:58:58.217Z,101774.50
2022-10-09T08:01:27.937Z,101692.03
2022-10-09T08:03:55.006Z,101775.22
2022-10-09T08:06:21.906Z,101744.34
2022-10-09T08:08:53.626Z,101776.91
2022-10-09T08:11:21.288Z,101773.38
2022-10-09T08:13:49.821Z,101743.41
2022-10-09T08:16:17.706Z,101583.78
2022-10-09T08:18:44.273Z,101781.13
2022-10-09T08:21:13.396Z,101770.00
2022-10-09T08:23:39.936Z,101776.72
2022-10-09T08:26:16.189Z,101660.72
2022-10-09T08:28:43.524Z,101732.94
2022-10-09T08:31:15.588Z,101721.13
2022-10-09T08:33:42.768Z,101756.69
2022-10-09T08:36:11.765Z,101756.31
2022-10-09T08:38:47.140Z,101755.97
2022-10-09T08:41:23.556Z,101695.72
2022-10-09T08:43:56.245Z,101736.09
2022-10-09T08:46:29.343Z,101770.03
2022-10-09T08:48:56.406Z,101757.47
2022-10-09T08:51:28.742Z,101738.94
2022-10-09T08:54:04.498Z,101773.63
2022-10-09T08:56:33.391Z,101773.63
2022-10-09T08:59:01.920Z,101777.16
2022-10-09T09:02:00.939Z,101765.19
2022-10-09T09:04:59.780Z,101780.69
2022-10-09T09:07:42.585Z,101764.19
2022-10-09T09:10:25.426Z,101725.34
2022-10-09T09:13:00.634Z,101776.47
2022-10-09T09:16:02.663Z,101784.22
2022-10-09T09:18:42.558Z,101794.97
2022-10-09T09:21:32.483Z,101766.69
2022-10-09T09:24:02.785Z,101783.63
2022-10-09T09:26:29.929Z,101774.84
2022-10-09T09:29:01.941Z,101792.16
2022-10-09T09:31:36.140Z,101758.41
2022-10-09T09:34:11.235Z,101796.78
2022-10-09T09:36:55.493Z,101788.81
2022-10-09T09:40:23.882Z,101799.44
2022-10-09T09:42:18.152Z,101790.69
2022-10-09T09:44:58.197Z,101616.28
2022-10-09T09:47:38.611Z,101762.75
2022-10-09T09:50:18.510Z,101758.50
2022-10-09T09:52:55.762Z,101779.88
2022-10-09T09:55:29.103Z,101783.53
2022-10-09T09:58:07.753Z,101746.34
2022-10-09T10:00:35.787Z,101784.69
2022-10-09T10:03:21.430Z,101758.97
2022-10-09T10:05:48.164Z,101773.81
2022-10-09T10:08:15.650Z,101765.59
2022-10-09T10:10:47.836Z,101759.47
2022-10-09T10:13:38.103Z,101767.16
2022-10-09T10:16:07.397Z,101754.84
2022-10-09T10:18:41.081Z,101732.94
2022-10-09T10:21:14.621Z,101682.13
2022-10-09T10:23:45.633Z,101724.22
2022-10-09T10:26:44.183Z,101754.38
2022-10-09T10:29:32.066Z,101761.31
2022-10-09T10:32:10.891Z,101765.69
2022-10-09T10:34:59.639Z,101741.50
2022-10-09T10:37:42.890Z,101758.63
2022-10-09T10:40:33.381Z,101761.84
2022-10-09T10:43:12.129Z,101749.13
2022-10-09T10:46:05.753Z,101753.22
2022-10-09T10:48:37.893Z,101747.09
2022-10-09T10:51:51.449Z,101729.53
2022-10-09T10:54:36.059Z,101751.81
2022-10-09T10:57:07.571Z,101749.34
2022-10-09T10:59:43.189Z,101748.91
2022-10-09T11:02:09.684Z,101748.84
2022-10-09T11:04:58.014Z,101744.06
2022-10-09T11:07:50.992Z,101750.22
2022-10-09T11:11:02.039Z,101730.75
2022-10-09T11:13:37.038Z,101751.16
2022-10-09T11:16:14.547Z,101744.97
2022-10-09T11:18:56.269Z,101742.44
2022-10-09T11:21:43.023Z,101743.00
2022-10-09T11:24:15.600Z,101733.88
2022-10-09T11:26:57.569Z,101734.78
2022-10-09T11:29:31.019Z,101660.00
2022-10-09T11:32:05.609Z,101723.97
2022-10-09T11:34:43.024Z,101716.63
2022-10-09T11:37:18.080Z,101691.91
2022-10-09T11:39:45.233Z,101667.81
2022-10-09T11:42:14.157Z,101663.28
2022-10-09T11:44:55.778Z,101672.97
2022-10-09T11:47:27.941Z,101693.59
2022-10-09T11:50:16.975Z,101702.34
2022-10-09T11:53:04.283Z,101667.03
2022-10-09T11:55:33.323Z,101686.59
2022-10-09T11:58:22.952Z,101692.94
2022-10-09T12:00:53.932Z,101692.66
2022-10-09T12:03:34.114Z,101691.91
2022-10-09T12:06:08.024Z,101701.59
2022-10-09T12:08:35.906Z,101662.19
2022-10-09T12:11:18.496Z,101675.75
2022-10-09T12:13:47.522Z,101690.34
2022-10-09T12:16:34.023Z,101679.50
2022-10-09T12:19:04.460Z,101633.47
2022-10-09T12:21:38.475Z,101660.34
2022-10-09T12:24:07.765Z,101529.72
2022-10-09T12:26:35.849Z,101595.16
2022-10-09T12:29:05.026Z,101653.22
2022-10-09T12:31:38.731Z,101638.31
2022-10-09T12:34:17.819Z,101637.72
2022-10-09T12:36:44.386Z,101657.28
2022-10-09T12:39:18.365Z,101643.13
2022-10-09T12:41:47.795Z,101649.59
2022-10-09T12:44:35.837Z,101655.22
2022-10-09T12:47:06.065Z,101588.31
2022-10-09T12:49:32.959Z,101632.53
2022-10-09T12:52:00.810Z,101632.78
2022-10-09T12:54:30.492Z,101614.38
2022-10-09T12:56:59.729Z,101587.91
2022-10-09T12:59:28.812Z,101608.47
2022-10-09T13:02:00.504Z,101630.97
2022-10-09T13:04:31.242Z,101529.50
2022-10-09T13:07:07.737Z,101505.47
2022-10-09T13:09:39.707Z,101401.28
2022-10-09T13:12:10.013Z,101599.13
2022-10-09T13:14:46.050Z,101616.47
2022-10-09T13:17:34.632Z,101617.03
2022-10-09T13:20:23.908Z,101617.34
2022-10-09T13:23:05.827Z,101573.47
2022-10-09T13:25:39.281Z,101607.47
2022-10-09T13:28:06.381Z,101607.06
2022-10-09T13:30:33.598Z,101602.88
2022-10-09T13:33:00.367Z,101605.47
2022-10-09T13:35:26.999Z,101598.38
2022-10-09T13:37:53.753Z,101581.63
2022-10-09T13:40:23.791Z,101607.56
2022-10-09T13:42:56.951Z,101586.41
2022-10-09T13:45:23.845Z,101545.75
2022-10-09T13:47:50.933Z,101573.69
2022-10-09T13:50:18.495Z,101530.59
2022-10-09T13:52:45.349Z,101597.31
2022-10-09T13:55:12.416Z,101602.97
2022-10-09T13:57:38.944Z,101429.53
2022-10-09T14:00:06.760Z,101593.81
2022-10-09T14:02:33.382Z,101596.06
2022-10-09T14:05:00.002Z,101596.22
2022-10-09T14:07:27.193Z,101584.03
2022-10-09T14:09:58.616Z,101593.28
2022-10-09T14:12:25.121Z,101595.00
2022-10-09T14:14:54.094Z,101549.97
2022-10-09T14:17:20.988Z,101485.28
2022-10-09T14:19:49.748Z,101584.94
2022-10-09T14:22:20.270Z,101584.84
2022-10-09T14:24:47.940Z,101450.09
2022-10-09T14:27:14.739Z,101419.78
2022-10-09T14:29:41.459Z,101488.81
2022-10-09T14:32:10.718Z,101388.53
2022-10-09T14:34:37.354Z,101384.13
2022-10-09T14:37:18.968Z,101531.31
2022-10-09T14:39:55.545Z,101399.47
2022-10-09T14:42:23.311Z,101503.53
2022-10-09T14:44:50.646Z,101387.50
2022-10-09T14:47:18.705Z,101485.88
2022-10-09T14:49:46.100Z,101486.22
2022-10-09T14:52:27.131Z,101539.19
2022-10-09T14:54:53.773Z,101346.81
2022-10-09T14:57:20.965Z,101564.00
2022-10-09T14:59:48.178Z,101471.53
2022-10-09T15:02:19.856Z,101488.16
2022-10-09T15:04:58.098Z,101457.25
2022-10-09T15:07:28.167Z,101529.59
2022-10-09T15:09:56.305Z,101512.84
2022-10-09T15:12:23.237Z,101557.94
2022-10-09T15:14:51.094Z,101530.81
2022-10-09T15:17:18.316Z,101468.72
2022-10-09T15:19:45.323Z,101460.13
2022-10-09T15:22:12.488Z,101564.13
2022-10-09T15:24:39.572Z,101371.94
2022-10-09T15:27:06.460Z,101556.53
2022-10-09T15:29:35.428Z,101516.94
2022-10-09T15:32:15.743Z,101415.13
2022-10-09T15:34:42.571Z,101474.59
2022-10-09T15:37:09.608Z,101352.91
2022-10-09T15:39:36.594Z,101499.94
2022-10-09T15:42:03.838Z,101516.31
2022-10-09T15:44:30.898Z,101498.34
2022-10-09T15:46:57.666Z,101536.38
2022-10-09T15:49:24.486Z,101537.31
2022-10-09T15:51:51.501Z,101358.88
2022-10-09T15:54:18.665Z,101422.03
2022-10-09T15:56:45.583Z,101540.41
2022-10-09T15:59:14.096Z,101533.09
2022-10-09T16:01:40.975Z,101534.09
2022-10-09T16:04:07.753Z,101336.34
2022-10-09T16:06:34.993Z,101430.16
2022-10-09T16:09:04.030Z,101492.59
2022-10-09T16:11:31.413Z,101515.53
2022-10-09T16:13:59.258Z,101530.47
2022-10-09T16:16:27.860Z,101553.13
2022-10-09T16:18:56.000Z,101519.31
2022-10-09T16:21:25.693Z,101558.38
2022-10-09T16:23:58.099Z,101471.28
2022-10-09T16:26:26.937Z,101488.59
2022-10-09T16:28:53.829Z,101555.97
2022-10-09T16:31:30.269Z,101555.72
2022-10-09T16:33:57.656Z,101523.91
2022-10-09T16:36:24.177Z,101539.94
2022-10-09T16:38:50.966Z,101535.69
2022-10-09T16:41:20.321Z,101537.63
2022-10-09T16:43:49.109Z,101534.88
2022-10-09T16:49:02.761Z,101578.78
2022-10-09T16:51:34.731Z,101575.63
2022-10-09T16:54:03.964Z,101580.53
2022-10-09T16:56:33.666Z,101586.16
2022-10-09T16:59:03.341Z,101575.91
2022-10-09T17:01:30.244Z,101545.97
2022-10-09T17:03:57.755Z,101570.94
2022-10-09T17:06:25.481Z,101597.91
2022-10-09T17:08:53.542Z,101595.94
2022-10-09T17:11:25.589Z,101577.47
2022-10-09T17:13:58.651Z,101597.78
2022-10-09T17:16:28.692Z,101597.41
2022-10-09T17:18:55.607Z,101613.06
2022-10-09T17:21:27.908Z,101616.72
2022-10-09T17:24:00.005Z,101478.44
2022-10-09T17:26:28.375Z,101623.50
2022-10-09T17:28:57.344Z,101611.03
2022-10-09T17:31:25.327Z,101581.75
2022-10-09T17:33:56.487Z,101454.81
2022-10-09T17:36:25.950Z,101605.06
2022-10-09T17:38:55.833Z,101593.81
2022-10-09T17:41:24.341Z,101596.03
2022-10-09T17:43:52.488Z,101590.84
2022-10-09T17:46:20.209Z,101609.78
2022-10-09T17:48:53.215Z,101629.72
2022-10-09T17:51:23.941Z,101635.06
2022-10-09T17:53:51.073Z,101581.94
2022-10-09T17:56:18.779Z,101424.06
2022-10-09T17:58:47.700Z,101630.28
2022-10-09T18:01:15.677Z,101615.19
2022-10-09T18:03:43.505Z,101620.59
2022-10-09T18:06:14.312Z,101641.84
2022-10-09T18:08:41.321Z,101647.63
2022-10-09T18:11:11.688Z,101627.78
2022-10-09T18:13:39.563Z,101604.75
2022-10-09T18:16:11.001Z,101645.59
2022-10-09T18:18:38.036Z,101647.28
2022-10-09T18:21:07.349Z,101656.09
2022-10-09T18:23:34.735Z,101634.75
2022-10-09T18:26:07.468Z,101612.44
2022-10-09T18:28:34.522Z,101647.25
2022-10-09T18:31:05.484Z,101553.91
2022-10-09T18:33:36.232Z,101538.28
2022-10-09T18:36:05.948Z,101598.00
2022-10-09T18:38:34.001Z,101654.31
2022-10-09T18:41:02.756Z,101576.34
2022-10-09T18:43:29.761Z,101613.47
2022-10-09T18:45:58.058Z,101641.34
2022-10-09T18:48:29.155Z,101647.13
2022-10-09T18:50:56.559Z,101546.00
2022-10-09T18:53:23.547Z,101556.06
2022-10-09T18:55:50.445Z,101642.19
2022-10-09T18:58:21.857Z,101581.63
2022-10-09T19:00:50.612Z,101619.59
2022-10-09T19:03:17.162Z,101654.19
2022-10-09T19:05:45.097Z,101648.88
2022-10-09T19:08:12.461Z,101657.94
2022-10-09T19:10:39.307Z,101632.25
2022-10-09T19:13:06.018Z,101631.75
2022-10-09T19:15:33.158Z,101597.81
2022-10-09T19:18:00.041Z,101582.38
2022-10-09T19:20:29.411Z,101632.13
2022-10-09T19:22:56.616Z,101611.66
2022-10-09T19:25:25.029Z,101640.56
2022-10-09T19:27:52.649Z,101654.31
2022-10-09T19:30:20.195Z,101662.38
2022-10-09T19:32:48.611Z,101663.38
2022-10-09T19:35:16.086Z,101635.19
2022-10-09T19:37:44.779Z,101666.59
2022-10-09T19:40:11.995Z,101633.19
2022-10-09T19:42:39.414Z,101616.44
2022-10-09T19:45:07.012Z,101675.44
2022-10-09T19:47:34.235Z,101669.38
2022-10-09T19:50:20.103Z,101468.97
2022-10-09T19:52:47.544Z,101680.00
2022-10-09T19:55:15.505Z,101616.25
2022-10-09T19:57:42.799Z,101641.34
2022-10-09T20:00:10.626Z,101665.09
2022-10-09T20:02:39.189Z,101675.91
2022-10-09T20:05:06.454Z,101626.50
2022-10-09T20:07:35.723Z,101641.16
2022-10-09T20:10:02.967Z,101663.41
2022-10-09T20:12:30.397Z,101674.94
2022-10-09T20:14:59.010Z,101651.50
2022-10-09T20:17:25.756Z,101675.91
2022-10-09T20:19:52.632Z,101612.56
2022-10-09T20:22:20.122Z,101605.16
2022-10-09T20:24:46.876Z,101617.91
2022-10-09T20:27:13.607Z,101694.94
2022-10-09T20:29:40.364Z,101582.47
2022-10-09T20:32:07.128Z,101678.97
2022-10-09T20:34:33.796Z,101618.81
2022-10-09T20:37:04.527Z,101649.56
2022-10-09T20:39:34.880Z,101694.50
2022-10-09T20:42:01.649Z,101652.94
2022-10-09T20:44:28.337Z,101678.50
2022-10-09T20:46:57.443Z,101541.31
2022-10-09T20:49:24.226Z,101565.53
2022-10-09T20:51:53.225Z,101674.47
2022-10-09T20:54:21.616Z,101559.34
2022-10-09T20:56:49.742Z,101494.13
2022-10-09T20:59:17.387Z,101538.31
2022-10-09T21:01:44.620Z,101579.72
2022-10-09T21:04:12.450Z,101685.66
2022-10-09T21:06:39.261Z,101692.84
2022-10-09T21:09:06.001Z,101695.75
2022-10-09T21:11:34.803Z,101650.84
2022-10-09T21:14:03.191Z,101608.31
2022-10-09T21:16:29.981Z,101607.13
2022-10-09T21:18:59.639Z,101509.13
2022-10-09T21:21:27.655Z,101437.19
2022-10-09T21:23:57.111Z,101691.56
2022-10-09T21:26:27.997Z,101627.88
2022-10-09T21:28:59.285Z,101514.69
2022-10-09T21:31:28.819Z,101695.13
2022-10-09T21:33:56.028Z,101698.50
2022-10-09T21:36:33.452Z,101682.31
2022-10-09T21:39:01.348Z,101464.25
2022-10-09T21:41:28.132Z,101566.97
2022-10-09T21:43:54.941Z,101679.31
2022-10-09T21:46:21.874Z,101691.75
2022-10-09T21:48:48.482Z,101595.06
2022-10-09T21:51:15.156Z,101681.81
2022-10-09T21:53:41.949Z,101566.28
2022-10-09T21:56:09.930Z,101691.91
2022-10-09T21:58:48.102Z,101689.88
2022-10-09T22:01:15.765Z,101656.13
2022-10-09T22:03:42.446Z,101613.72
2022-10-09T22:06:17.771Z,101692.44
2022-10-09T22:08:48.802Z,101491.69
2022-10-09T22:11:16.992Z,101697.16
2022-10-09T22:13:46.394Z,101554.72
2022-10-09T22:16:15.112Z,101683.31
2022-10-09T22:18:42.018Z,101648.19
2022-10-09T22:21:13.456Z,101688.53
2022-10-09T22:23:41.981Z,101672.22
2022-10-09T22:26:12.718Z,101558.53
2022-10-09T22:28:39.874Z,101571.00
2022-10-09T22:31:11.189Z,101658.81
2022-10-09T22:33:38.213Z,101574.06
2022-10-09T22:36:11.656Z,101466.47
2022-10-09T22:38:39.408Z,101687.13
2022-10-09T22:41:21.213Z,101693.34
2022-10-09T22:43:50.811Z,101648.94
2022-10-09T22:46:23.385Z,101647.25
2022-10-09T22:49:00.167Z,101614.75
2022-10-09T22:51:31.206Z,101611.22
2022-10-09T22:53:59.550Z,101680.38
2022-10-09T22:56:45.772Z,101441.25
2022-10-09T22:59:15.702Z,101627.88
2022-10-09T23:02:07.030Z,101612.91
2022-10-09T23:04:38.465Z,101444.94
2022-10-09T23:07:08.479Z,101529.66
2022-10-09T23:09:38.601Z,101606.50
2022-10-09T23:12:06.486Z,101462.25
2022-10-09T23:14:33.219Z,101666.22
2022-10-09T23:17:00.822Z,101655.97
2022-10-09T23:19:29.012Z,101642.69
2022-10-09T23:21:57.659Z,101660.84
2022-10-09T23:24:24.892Z,101685.09
2022-10-09T23:26:52.509Z,101658.00
2022-10-09T23:29:28.303Z,101670.47
2022-10-09T23:31:55.185Z,101570.38
2022-10-09T23:34:22.013Z,101642.03
2022-10-09T23:37:02.576Z,101608.22
2022-10-09T23:39:29.161Z,101673.00
2022-10-09T23:41:55.987Z,101452.66
2022-10-09T23:44:22.732Z,101612.09
2022-10-09T23:46:49.515Z,101685.13
2022-10-09T23:49:16.255Z,101685.78
2022-10-09T23:51:42.814Z,101693.19
2022-10-09T23:54:09.909Z,101674.19
2022-10-09T23:56:37.281Z,101676.06
2022-10-09T23:59:08.236Z,101532.22
